NZOH/OHA METAR and TAF weather

Enter ICAO airport designator
Station Type Date Time Source
NZOH METAR 2019/10/19 22:00 UTC NOAA

NZOH 192200Z 29009KT 250V320 30KM BKN018 BKN025 15/11 Q1016 TEMPO 5000 SHRA


Station Type Date Time Source
NZOH Decoded METAR 2019/10/19 22:00 UTC NOAA

Ohakea, New Zealand (NZOH) 40-12S 175-22E 52M
Oct 19, 2019 - 06:00 PM EDT / 2019.10.19 2200 UTC
Wind: from the WNW (290 degrees) at 10 MPH (9 KT) (direction variable):0
Sky conditions: mostly cloudy
Temperature: 59 F (15 C)
Dew Point: 51 F (11 C)
Relative Humidity: 76%
Pressure (altimeter): 30.00 in. Hg (1016 hPa)
ob: NZOH 192200Z 29009KT 250V320 30KM BKN018 BKN025 15/11 Q1016 TEMPO 5000 SHRA
cycle: 22

Station Type Date Time Source
NZOH TAF 2007/12/14 04:59 UTC NOAA

TAF NZOH 140459Z 140606 11020KT 30KM SCT080 BECMH 0911 03008KT
BECMG 2224 27012KT

Example: see airport list